Aviation Digital Data Service (ADDS)

Output produced by METARs form (2057 UTC 20 August 2019)
found at http://www.aviationweather.gov/metar/data/
 
METAR text: WBKL 202000Z VRB02KT 9999 FEW012 BKN140 OVC290 26/23 Q1008
Conditions at: WBKL (LABUAN (AFB) , MY) observed 2000 UTC 20 August 2019
Temperature: 26.0°C (79°F)
Dewpoint: 23.0°C (73°F) [RH = 84%]
Pressure (altimeter): 29.76 inches Hg (1008.0 mb)
Winds: variable direction winds at 2 MPH (2 knots; 1.0 m/s)
Visibility: 6 or more miles (10+ km)
Ceiling: 14000 feet AGL
Clouds: few clouds at 1200 feet AGL
broken clouds at 14000 feet AGL
overcast cloud deck at 29000 feet AGL
Weather: no significant weather observed at this time

METAR text: WBKL 201900Z 06003KT 360V070 9999 FEW012 BKN140 OVC290 26/23 Q1008
Conditions at: WBKL (LABUAN (AFB) , MY) observed 1900 UTC 20 August 2019
Temperature: 26.0°C (79°F)
Dewpoint: 23.0°C (73°F) [RH = 84%]
Pressure (altimeter): 29.76 inches Hg (1008.0 mb)
Winds: from the ENE (60 degrees) at 3 MPH (3 knots; 1.5 m/s)
Visibility: 6 or more miles (10+ km)
Ceiling: 14000 feet AGL
Clouds: few clouds at 1200 feet AGL
broken clouds at 14000 feet AGL
overcast cloud deck at 29000 feet AGL
Weather: no significant weather observed at this time

METAR text: WBKL 201800Z 06004KT 9999 FEW012 BKN290 26/23 Q1008
Conditions at: WBKL (LABUAN (AFB) , MY) observed 1800 UTC 20 August 2019
Temperature: 26.0°C (79°F)
Dewpoint: 23.0°C (73°F) [RH = 84%]
Pressure (altimeter): 29.76 inches Hg (1008.0 mb)
Winds: from the ENE (60 degrees) at 5 MPH (4 knots; 2.1 m/s)
Visibility: 6 or more miles (10+ km)
Ceiling: 29000 feet AGL
Clouds: few clouds at 1200 feet AGL
broken clouds at 29000 feet AGL
Weather: no significant weather observed at this time

METAR text: WBKL 201700Z 06004KT 9999 FEW012 BKN140 BKN290 26/23 Q1009
Conditions at: WBKL (LABUAN (AFB) , MY) observed 1700 UTC 20 August 2019
Temperature: 26.0°C (79°F)
Dewpoint: 23.0°C (73°F) [RH = 84%]
Pressure (altimeter): 29.79 inches Hg (1009.0 mb)
Winds: from the ENE (60 degrees) at 5 MPH (4 knots; 2.1 m/s)
Visibility: 6 or more miles (10+ km)
Ceiling: 14000 feet AGL
Clouds: few clouds at 1200 feet AGL
broken clouds at 14000 feet AGL
broken clouds at 29000 feet AGL
Weather: no significant weather observed at this time

METAR text: WBKL 201600Z 06005KT 030V110 9999 FEW012 BKN140 OVC280 26/24 Q1010
Conditions at: WBKL (LABUAN (AFB) , MY) observed 1600 UTC 20 August 2019
Temperature: 26.0°C (79°F)
Dewpoint: 24.0°C (75°F) [RH = 89%]
Pressure (altimeter): 29.82 inches Hg (1010.0 mb)
Winds: from the ENE (60 degrees) at 6 MPH (5 knots; 2.6 m/s)
Visibility: 6 or more miles (10+ km)
Ceiling: 14000 feet AGL
Clouds: few clouds at 1200 feet AGL
broken clouds at 14000 feet AGL
overcast cloud deck at 28000 feet AGL
Weather: no significant weather observed at this time

METAR text: WBKL 201500Z VRB02KT 9999 -RA FEW012 FEW014CB BKN130 OVC280 26/24 Q1011
Conditions at: WBKL (LABUAN (AFB) , MY) observed 1500 UTC 20 August 2019
Temperature: 26.0°C (79°F)
Dewpoint: 24.0°C (75°F) [RH = 89%]
Pressure (altimeter): 29.85 inches Hg (1011.0 mb)
Winds: variable direction winds at 2 MPH (2 knots; 1.0 m/s)
Visibility: 6 or more miles (10+ km)
Ceiling: 13000 feet AGL
Clouds: few clouds at 1200 feet AGL
few clouds at 1400 feet AGL
broken clouds at 13000 feet AGL
overcast cloud deck at 28000 feet AGL
Weather: -RA  (light rain)

METAR text: WBKL 201400Z VRB02KT 6000 -RA FEW010 BKN130 OVC280 26/25 Q1011
Conditions at: WBKL (LABUAN (AFB) , MY) observed 1400 UTC 20 August 2019
Temperature: 26.0°C (79°F)
Dewpoint: 25.0°C (77°F) [RH = 94%]
Pressure (altimeter): 29.85 inches Hg (1011.0 mb)
Winds: variable direction winds at 2 MPH (2 knots; 1.0 m/s)
Visibility: 4 miles ( 6 km)
Ceiling: 13000 feet AGL
Clouds: few clouds at 1000 feet AGL
broken clouds at 13000 feet AGL
overcast cloud deck at 28000 feet AGL
Weather: -RA  (light rain)

METAR text: WBKL 201300Z VRB02KT 6000 -RA FEW010 BKN130 OVC280 26/25 Q1011 RETSRA
Conditions at: WBKL (LABUAN (AFB) , MY) observed 1300 UTC 20 August 2019
Temperature: 26.0°C (79°F)
Dewpoint: 25.0°C (77°F) [RH = 94%]
Pressure (altimeter): 29.85 inches Hg (1011.0 mb)
Winds: variable direction winds at 2 MPH (2 knots; 1.0 m/s)
Visibility: 4 miles ( 6 km)
Ceiling: 13000 feet AGL
Clouds: few clouds at 1000 feet AGL
broken clouds at 13000 feet AGL
overcast cloud deck at 28000 feet AGL
Weather: -RA  (light rain)

METAR text: WBKL 201200Z 00000KT 6000 -TSRA FEW010 FEW013CB SCT040 OVC280 25/23 Q1010 RETSRA
Conditions at: WBKL (LABUAN (AFB) , MY) observed 1200 UTC 20 August 2019
Temperature: 25.0°C (77°F)
Dewpoint: 23.0°C (73°F) [RH = 89%]
Pressure (altimeter): 29.82 inches Hg (1010.0 mb)
Winds: calm
Visibility: 4 miles ( 6 km)
Ceiling: 28000 feet AGL
Clouds: few clouds at 1000 feet AGL
few clouds at 1300 feet AGL
scattered clouds at 4000 feet AGL
overcast cloud deck at 28000 feet AGL
Weather: -TSRA  (light rain associated with thunderstorm(s))

METAR text: WBKL 201100Z VRB05KT 0800 TSRA FEW010 FEW016CB SCT030 BKN120 25/23 Q1009
Conditions at: WBKL (LABUAN (AFB) , MY) observed 1100 UTC 20 August 2019
Temperature: 25.0°C (77°F)
Dewpoint: 23.0°C (73°F) [RH = 89%]
Pressure (altimeter): 29.79 inches Hg (1009.0 mb)
Winds: variable direction winds at 6 MPH (5 knots; 2.6 m/s)
Visibility: 0.50 miles (0.80 km)
Ceiling: 12000 feet AGL
Clouds: few clouds at 1000 feet AGL
few clouds at 1600 feet AGL
scattered clouds at 3000 feet AGL
broken clouds at 12000 feet AGL
Weather: TSRA  (rain associated with thunderstorm(s))

METAR text: WBKL 201000Z VRB02KT 8000 -TSRA FEW010 FEW017CB SCT030 OVC270 28/25 Q1008
Conditions at: WBKL (LABUAN (AFB) , MY) observed 1000 UTC 20 August 2019
Temperature: 28.0°C (82°F)
Dewpoint: 25.0°C (77°F) [RH = 84%]
Pressure (altimeter): 29.76 inches Hg (1008.0 mb)
Winds: variable direction winds at 2 MPH (2 knots; 1.0 m/s)
Visibility: 5 miles ( 8 km)
Ceiling: 27000 feet AGL
Clouds: few clouds at 1000 feet AGL
few clouds at 1700 feet AGL
scattered clouds at 3000 feet AGL
overcast cloud deck at 27000 feet AGL
Weather: -TSRA  (light rain associated with thunderstorm(s))

METAR text: WBKL 200900Z 26005KT 200V320 9999 FEW015 FEW017CB SCT140 BKN290 30/25 Q1008
Conditions at: WBKL (LABUAN (AFB) , MY) observed 0900 UTC 20 August 2019
Temperature: 30.0°C (86°F)
Dewpoint: 25.0°C (77°F) [RH = 75%]
Pressure (altimeter): 29.76 inches Hg (1008.0 mb)
Winds: from the W (260 degrees) at 6 MPH (5 knots; 2.6 m/s)
Visibility: 6 or more miles (10+ km)
Ceiling: 29000 feet AGL
Clouds: few clouds at 1500 feet AGL
few clouds at 1700 feet AGL
scattered clouds at 14000 feet AGL
broken clouds at 29000 feet AGL
Weather: no significant weather observed at this time

METAR text: WBKL 200800Z VRB04KT 9999 FEW015 FEW017CB SCT140 BKN290 31/25 Q1007
Conditions at: WBKL (LABUAN (AFB) , MY) observed 0800 UTC 20 August 2019
Temperature: 31.0°C (88°F)
Dewpoint: 25.0°C (77°F) [RH = 71%]
Pressure (altimeter): 29.73 inches Hg (1007.0 mb)
Winds: variable direction winds at 5 MPH (4 knots; 2.1 m/s)
Visibility: 6 or more miles (10+ km)
Ceiling: 29000 feet AGL
Clouds: few clouds at 1500 feet AGL
few clouds at 1700 feet AGL
scattered clouds at 14000 feet AGL
broken clouds at 29000 feet AGL
Weather: no significant weather observed at this time

METAR text: WBKL 200700Z VRB04KT 9999 FEW015 FEW017CB SCT140 BKN290 31/24 Q1007
Conditions at: WBKL (LABUAN (AFB) , MY) observed 0700 UTC 20 August 2019
Temperature: 31.0°C (88°F)
Dewpoint: 24.0°C (75°F) [RH = 66%]
Pressure (altimeter): 29.73 inches Hg (1007.0 mb)
Winds: variable direction winds at 5 MPH (4 knots; 2.1 m/s)
Visibility: 6 or more miles (10+ km)
Ceiling: 29000 feet AGL
Clouds: few clouds at 1500 feet AGL
few clouds at 1700 feet AGL
scattered clouds at 14000 feet AGL
broken clouds at 29000 feet AGL
Weather: no significant weather observed at this time

METAR text: WBKL 200600Z 25004KT 180V340 9999 FEW015 SCT140 BKN290 31/25 Q1008
Conditions at: WBKL (LABUAN (AFB) , MY) observed 0600 UTC 20 August 2019
Temperature: 31.0°C (88°F)
Dewpoint: 25.0°C (77°F) [RH = 71%]
Pressure (altimeter): 29.76 inches Hg (1008.0 mb)
Winds: from the WSW (250 degrees) at 5 MPH (4 knots; 2.1 m/s)
Visibility: 6 or more miles (10+ km)
Ceiling: 29000 feet AGL
Clouds: few clouds at 1500 feet AGL
scattered clouds at 14000 feet AGL
broken clouds at 29000 feet AGL
Weather: no significant weather observed at this time

METAR text: WBKL 200500Z VRB05KT 9999 FEW014 BKN300 31/24 Q1009
Conditions at: WBKL (LABUAN (AFB) , MY) observed 0500 UTC 20 August 2019
Temperature: 31.0°C (88°F)
Dewpoint: 24.0°C (75°F) [RH = 66%]
Pressure (altimeter): 29.79 inches Hg (1009.0 mb)
Winds: variable direction winds at 6 MPH (5 knots; 2.6 m/s)
Visibility: 6 or more miles (10+ km)
Ceiling: 30000 feet AGL
Clouds: few clouds at 1400 feet AGL
broken clouds at 30000 feet AGL
Weather: no significant weather observed at this time

METAR text: WBKL 200400Z VRB05KT 9999 FEW015 BKN140 BKN300 30/24 Q1010
Conditions at: WBKL (LABUAN (AFB) , MY) observed 0400 UTC 20 August 2019
Temperature: 30.0°C (86°F)
Dewpoint: 24.0°C (75°F) [RH = 70%]
Pressure (altimeter): 29.82 inches Hg (1010.0 mb)
Winds: variable direction winds at 6 MPH (5 knots; 2.6 m/s)
Visibility: 6 or more miles (10+ km)
Ceiling: 14000 feet AGL
Clouds: few clouds at 1500 feet AGL
broken clouds at 14000 feet AGL
broken clouds at 30000 feet AGL
Weather: no significant weather observed at this time

METAR text: WBKL 200300Z VRB03KT 9999 FEW013 BKN140 OVC290 29/24 Q1010
Conditions at: WBKL (LABUAN (AFB) , MY) observed 0300 UTC 20 August 2019
Temperature: 29.0°C (84°F)
Dewpoint: 24.0°C (75°F) [RH = 74%]
Pressure (altimeter): 29.82 inches Hg (1010.0 mb)
Winds: variable direction winds at 3 MPH (3 knots; 1.5 m/s)
Visibility: 6 or more miles (10+ km)
Ceiling: 14000 feet AGL
Clouds: few clouds at 1300 feet AGL
broken clouds at 14000 feet AGL
overcast cloud deck at 29000 feet AGL
Weather: no significant weather observed at this time

METAR text: WBKL 200200Z VRB03KT 9999 FEW013 BKN280 28/24 Q1011
Conditions at: WBKL (LABUAN (AFB) , MY) observed 0200 UTC 20 August 2019
Temperature: 28.0°C (82°F)
Dewpoint: 24.0°C (75°F) [RH = 79%]
Pressure (altimeter): 29.85 inches Hg (1011.0 mb)
Winds: variable direction winds at 3 MPH (3 knots; 1.5 m/s)
Visibility: 6 or more miles (10+ km)
Ceiling: 28000 feet AGL
Clouds: few clouds at 1300 feet AGL
broken clouds at 28000 feet AGL
Weather: no significant weather observed at this time

METAR text: WBKL 200100Z VRB04KT 9999 FEW012 OVC280 27/24 Q1011
Conditions at: WBKL (LABUAN (AFB) , MY) observed 0100 UTC 20 August 2019
Temperature: 27.0°C (81°F)
Dewpoint: 24.0°C (75°F) [RH = 84%]
Pressure (altimeter): 29.85 inches Hg (1011.0 mb)
Winds: variable direction winds at 5 MPH (4 knots; 2.1 m/s)
Visibility: 6 or more miles (10+ km)
Ceiling: 28000 feet AGL
Clouds: few clouds at 1200 feet AGL
overcast cloud deck at 28000 feet AGL
Weather: no significant weather observed at this time

METAR text: WBKL 200000Z VRB02KT 9999 -RA FEW012 BKN130 OVC280 26/24 Q1011 RETS
Conditions at: WBKL (LABUAN (AFB) , MY) observed 0000 UTC 20 August 2019
Temperature: 26.0°C (79°F)
Dewpoint: 24.0°C (75°F) [RH = 89%]
Pressure (altimeter): 29.85 inches Hg (1011.0 mb)
Winds: variable direction winds at 2 MPH (2 knots; 1.0 m/s)
Visibility: 6 or more miles (10+ km)
Ceiling: 13000 feet AGL
Clouds: few clouds at 1200 feet AGL
broken clouds at 13000 feet AGL
overcast cloud deck at 28000 feet AGL
Weather: -RA  (light rain)

METAR text: WBKL 192300Z 07005KT 060V120 9999 TS FEW010 FEW014CB SCT030 BKN140 26/24 Q1011
Conditions at: WBKL (LABUAN (AFB) , MY) observed 2300 UTC 19 August 2019
Temperature: 26.0°C (79°F)
Dewpoint: 24.0°C (75°F) [RH = 89%]
Pressure (altimeter): 29.85 inches Hg (1011.0 mb)
Winds: from the ENE (70 degrees) at 6 MPH (5 knots; 2.6 m/s)
Visibility: 6 or more miles (10+ km)
Ceiling: 14000 feet AGL
Clouds: few clouds at 1000 feet AGL
few clouds at 1400 feet AGL
scattered clouds at 3000 feet AGL
broken clouds at 14000 feet AGL
Weather: TS  (thunderstorm)

METAR text: WBKL 192200Z VRB03KT 9999 TS FEW012 FEW014CB SCT040 BKN280 25/23 Q1010 RETSRA
Conditions at: WBKL (LABUAN (AFB) , MY) observed 2200 UTC 19 August 2019
Temperature: 25.0°C (77°F)
Dewpoint: 23.0°C (73°F) [RH = 89%]
Pressure (altimeter): 29.82 inches Hg (1010.0 mb)
Winds: variable direction winds at 3 MPH (3 knots; 1.5 m/s)
Visibility: 6 or more miles (10+ km)
Ceiling: 28000 feet AGL
Clouds: few clouds at 1200 feet AGL
few clouds at 1400 feet AGL
scattered clouds at 4000 feet AGL
broken clouds at 28000 feet AGL
Weather: TS  (thunderstorm)

METAR text: WBKL 192100Z VRB02KT 9000 -TSRA FEW010 FEW014CB SCT030 BKN280 25/23 Q1010
Conditions at: WBKL (LABUAN (AFB) , MY) observed 2100 UTC 19 August 2019
Temperature: 25.0°C (77°F)
Dewpoint: 23.0°C (73°F) [RH = 89%]
Pressure (altimeter): 29.82 inches Hg (1010.0 mb)
Winds: variable direction winds at 2 MPH (2 knots; 1.0 m/s)
Visibility: 6 miles ( 9 km)
Ceiling: 28000 feet AGL
Clouds: few clouds at 1000 feet AGL
few clouds at 1400 feet AGL
scattered clouds at 3000 feet AGL
broken clouds at 28000 feet AGL
Weather: -TSRA  (light rain associated with thunderstorm(s))

METAR text: WBKL 192000Z VRB03KT 9999 -TSRA FEW010 FEW014CB SCT040 BKN280 27/24 Q1009
Conditions at: WBKL (LABUAN (AFB) , MY) observed 2000 UTC 19 August 2019
Temperature: 27.0°C (81°F)
Dewpoint: 24.0°C (75°F) [RH = 84%]
Pressure (altimeter): 29.79 inches Hg (1009.0 mb)
Winds: variable direction winds at 3 MPH (3 knots; 1.5 m/s)
Visibility: 6 or more miles (10+ km)
Ceiling: 28000 feet AGL
Clouds: few clouds at 1000 feet AGL
few clouds at 1400 feet AGL
scattered clouds at 4000 feet AGL
broken clouds at 28000 feet AGL
Weather: -TSRA  (light rain associated with thunderstorm(s))

METAR text: WBKL 191900Z 00000KT 9999 TS FEW014 FEW015CB SCT140 BKN290 27/24 Q1009
Conditions at: WBKL (LABUAN (AFB) , MY) observed 1900 UTC 19 August 2019
Temperature: 27.0°C (81°F)
Dewpoint: 24.0°C (75°F) [RH = 84%]
Pressure (altimeter): 29.79 inches Hg (1009.0 mb)
Winds: calm
Visibility: 6 or more miles (10+ km)
Ceiling: 29000 feet AGL
Clouds: few clouds at 1400 feet AGL
few clouds at 1500 feet AGL
scattered clouds at 14000 feet AGL
broken clouds at 29000 feet AGL
Weather: TS  (thunderstorm)

METAR text: WBKL 191800Z 00000KT 9999 FEW014 FEW015CB SCT140 BKN290 27/24 Q1009
Conditions at: WBKL (LABUAN (AFB) , MY) observed 1800 UTC 19 August 2019
Temperature: 27.0°C (81°F)
Dewpoint: 24.0°C (75°F) [RH = 84%]
Pressure (altimeter): 29.79 inches Hg (1009.0 mb)
Winds: calm
Visibility: 6 or more miles (10+ km)
Ceiling: 29000 feet AGL
Clouds: few clouds at 1400 feet AGL
few clouds at 1500 feet AGL
scattered clouds at 14000 feet AGL
broken clouds at 29000 feet AGL
Weather: no significant weather observed at this time

METAR text: WBKL 191700Z 00000KT 9999 FEW014 FEW014CB SCT140 BKN290 27/24 Q1010
Conditions at: WBKL (LABUAN (AFB) , MY) observed 1700 UTC 19 August 2019
Temperature: 27.0°C (81°F)
Dewpoint: 24.0°C (75°F) [RH = 84%]
Pressure (altimeter): 29.82 inches Hg (1010.0 mb)
Winds: calm
Visibility: 6 or more miles (10+ km)
Ceiling: 29000 feet AGL
Clouds: few clouds at 1400 feet AGL
few clouds at 1400 feet AGL
scattered clouds at 14000 feet AGL
broken clouds at 29000 feet AGL
Weather: no significant weather observed at this time

METAR text: WBKL 191600Z 00000KT 9999 FEW014 FEW015CB BKN290 27/24 Q1010
Conditions at: WBKL (LABUAN (AFB) , MY) observed 1600 UTC 19 August 2019
Temperature: 27.0°C (81°F)
Dewpoint: 24.0°C (75°F) [RH = 84%]
Pressure (altimeter): 29.82 inches Hg (1010.0 mb)
Winds: calm
Visibility: 6 or more miles (10+ km)
Ceiling: 29000 feet AGL
Clouds: few clouds at 1400 feet AGL
few clouds at 1500 feet AGL
broken clouds at 29000 feet AGL
Weather: no significant weather observed at this time

METAR text: WBKL 191500Z 00000KT 9999 FEW015 FEW016CB BKN300 27/24 Q1011
Conditions at: WBKL (LABUAN (AFB) , MY) observed 1500 UTC 19 August 2019
Temperature: 27.0°C (81°F)
Dewpoint: 24.0°C (75°F) [RH = 84%]
Pressure (altimeter): 29.85 inches Hg (1011.0 mb)
Winds: calm
Visibility: 6 or more miles (10+ km)
Ceiling: 30000 feet AGL
Clouds: few clouds at 1500 feet AGL
few clouds at 1600 feet AGL
broken clouds at 30000 feet AGL
Weather: no significant weather observed at this time

METAR text: WBKL 191400Z 00000KT 9999 FEW015 FEW016CB BKN300 28/24 Q1011
Conditions at: WBKL (LABUAN (AFB) , MY) observed 1400 UTC 19 August 2019
Temperature: 28.0°C (82°F)
Dewpoint: 24.0°C (75°F) [RH = 79%]
Pressure (altimeter): 29.85 inches Hg (1011.0 mb)
Winds: calm
Visibility: 6 or more miles (10+ km)
Ceiling: 30000 feet AGL
Clouds: few clouds at 1500 feet AGL
few clouds at 1600 feet AGL
broken clouds at 30000 feet AGL
Weather: no significant weather observed at this time

METAR text: WBKL 191300Z VRB02KT 9999 FEW015 FEW016CB BKN300 28/24 Q1010
Conditions at: WBKL (LABUAN (AFB) , MY) observed 1300 UTC 19 August 2019
Temperature: 28.0°C (82°F)
Dewpoint: 24.0°C (75°F) [RH = 79%]
Pressure (altimeter): 29.82 inches Hg (1010.0 mb)
Winds: variable direction winds at 2 MPH (2 knots; 1.0 m/s)
Visibility: 6 or more miles (10+ km)
Ceiling: 30000 feet AGL
Clouds: few clouds at 1500 feet AGL
few clouds at 1600 feet AGL
broken clouds at 30000 feet AGL
Weather: no significant weather observed at this time

METAR text: WBKL 191200Z VRB01KT 9999 FEW015 BKN290 28/24 Q1009
Conditions at: WBKL (LABUAN (AFB) , MY) observed 1200 UTC 19 August 2019
Temperature: 28.0°C (82°F)
Dewpoint: 24.0°C (75°F) [RH = 79%]
Pressure (altimeter): 29.79 inches Hg (1009.0 mb)
Winds: variable direction winds at 1 MPH (1 knots; 0.5 m/s)
Visibility: 6 or more miles (10+ km)
Ceiling: 29000 feet AGL
Clouds: few clouds at 1500 feet AGL
broken clouds at 29000 feet AGL
Weather: no significant weather observed at this time

METAR text: WBKL 191100Z VRB02KT 9999 FEW015 BKN290 29/24 Q1008
Conditions at: WBKL (LABUAN (AFB) , MY) observed 1100 UTC 19 August 2019
Temperature: 29.0°C (84°F)
Dewpoint: 24.0°C (75°F) [RH = 74%]
Pressure (altimeter): 29.76 inches Hg (1008.0 mb)
Winds: variable direction winds at 2 MPH (2 knots; 1.0 m/s)
Visibility: 6 or more miles (10+ km)
Ceiling: 29000 feet AGL
Clouds: few clouds at 1500 feet AGL
broken clouds at 29000 feet AGL
Weather: no significant weather observed at this time

METAR text: WBKL 191000Z VRB03KT 9999 FEW015 FEW016CB BKN290 30/23 Q1007
Conditions at: WBKL (LABUAN (AFB) , MY) observed 1000 UTC 19 August 2019
Temperature: 30.0°C (86°F)
Dewpoint: 23.0°C (73°F) [RH = 66%]
Pressure (altimeter): 29.73 inches Hg (1007.0 mb)
Winds: variable direction winds at 3 MPH (3 knots; 1.5 m/s)
Visibility: 6 or more miles (10+ km)
Ceiling: 29000 feet AGL
Clouds: few clouds at 1500 feet AGL
few clouds at 1600 feet AGL
broken clouds at 29000 feet AGL
Weather: no significant weather observed at this time

METAR text: WBKL 190900Z VRB03KT 9999 FEW015 BKN300 31/23 Q1006
Conditions at: WBKL (LABUAN (AFB) , MY) observed 0900 UTC 19 August 2019
Temperature: 31.0°C (88°F)
Dewpoint: 23.0°C (73°F) [RH = 63%]
Pressure (altimeter): 29.70 inches Hg (1006.0 mb)
Winds: variable direction winds at 3 MPH (3 knots; 1.5 m/s)
Visibility: 6 or more miles (10+ km)
Ceiling: 30000 feet AGL
Clouds: few clouds at 1500 feet AGL
broken clouds at 30000 feet AGL
Weather: no significant weather observed at this time

Forecast for: WBKL (LABUAN (AFB) , MY)
Text: TAF WBKL 201700Z 2018/2118 VRB03KT 9999 FEW012
Forecast period: 1800 UTC 20 August 2019 to 1800 UTC 21 August 2019
Forecast type: FROM: standard forecast or significant change
Winds: variable direction winds at 3 MPH (3 knots; 1.5 m/s)
Visibility: 6 or more miles 10+ km)
Ceiling: at least 12,000 feet AGL
Clouds: few clouds at 1200 feet AGL
Weather: no significant weather forecast for this period